createdAt,value
2023-05-01T00:00:54.223Z,6.47
2023-05-01T00:03:20.778Z,6.48
2023-05-01T00:05:47.534Z,6.48
2023-05-01T00:08:14.227Z,6.47
2023-05-01T00:10:40.688Z,6.49
2023-05-01T00:13:07.180Z,6.50
2023-05-01T00:15:33.786Z,6.46
2023-05-01T00:18:00.402Z,6.45
2023-05-01T00:20:27.963Z,6.45
2023-05-01T00:22:55.592Z,6.43
2023-05-01T00:25:22.094Z,6.43
2023-05-01T00:27:48.571Z,6.46
2023-05-01T00:30:15.270Z,6.44
2023-05-01T00:32:41.767Z,6.42
2023-05-01T00:35:08.683Z,6.34
2023-05-01T00:37:35.213Z,6.36
2023-05-01T00:40:01.723Z,6.38
2023-05-01T00:42:28.233Z,6.38
2023-05-01T00:44:54.794Z,6.37
2023-05-01T00:47:21.353Z,6.37
2023-05-01T00:49:50.091Z,6.36
2023-05-01T00:52:16.845Z,6.37
2023-05-01T00:54:43.367Z,6.36
2023-05-01T00:57:09.963Z,6.36
2023-05-01T00:59:36.848Z,6.36
2023-05-01T01:02:03.439Z,6.41
2023-05-01T01:04:29.959Z,6.44
2023-05-01T01:07:10.348Z,6.45
2023-05-01T01:09:39.798Z,6.45
2023-05-01T01:12:19.134Z,6.44
2023-05-01T01:14:55.312Z,6.45
2023-05-01T01:17:40.671Z,6.48
2023-05-01T01:20:31.361Z,6.45
2023-05-01T01:23:39.706Z,6.45
2023-05-01T01:26:12.205Z,6.42
2023-05-01T01:29:06.235Z,6.42
2023-05-01T01:31:40.084Z,6.44
2023-05-01T01:34:12.387Z,6.43
2023-05-01T01:37:00.511Z,6.47
2023-05-01T01:39:39.184Z,6.48
2023-05-01T01:42:09.772Z,6.50
2023-05-01T01:44:47.600Z,6.52
2023-05-01T01:47:15.386Z,6.54
2023-05-01T01:49:50.051Z,6.57
2023-05-01T01:52:18.718Z,6.59
2023-05-01T01:54:50.732Z,6.60
2023-05-01T01:57:19.600Z,6.64
2023-05-01T01:59:47.486Z,6.63
2023-05-01T02:02:17.043Z,6.64
2023-05-01T02:04:45.709Z,6.65
2023-05-01T02:07:14.817Z,6.63
2023-05-01T02:09:42.662Z,6.64
2023-05-01T02:12:11.102Z,6.62
2023-05-01T02:14:38.847Z,6.65
2023-05-01T02:17:06.227Z,6.69
2023-05-01T02:19:34.333Z,6.72
2023-05-01T02:22:01.912Z,6.74
2023-05-01T02:24:30.640Z,6.72
2023-05-01T02:27:01.086Z,6.75
2023-05-01T02:29:27.601Z,6.79
2023-05-01T02:31:54.410Z,6.79
2023-05-01T02:34:20.977Z,6.81
2023-05-01T02:36:47.465Z,6.79
2023-05-01T02:39:14.098Z,6.79
2023-05-01T02:41:41.954Z,6.79
2023-05-01T02:44:11.232Z,6.83
2023-05-01T02:49:05.810Z,6.85
2023-05-01T02:51:32.726Z,6.83
2023-05-01T02:54:00.167Z,6.84
2023-05-01T02:56:26.942Z,6.83
2023-05-01T02:58:53.875Z,6.80
2023-05-01T03:01:20.503Z,6.81
2023-05-01T03:03:47.316Z,6.80
2023-05-01T03:06:13.899Z,6.80
2023-05-01T03:08:40.817Z,6.84
2023-05-01T03:11:07.808Z,6.89
2023-05-01T03:13:34.986Z,6.88
2023-05-01T03:16:02.311Z,6.88
2023-05-01T03:18:28.850Z,6.83
2023-05-01T03:20:55.899Z,6.88
2023-05-01T03:23:23.021Z,6.91
2023-05-01T03:25:50.121Z,6.93
2023-05-01T03:28:16.737Z,6.97
2023-05-01T03:30:45.044Z,7.03
2023-05-01T03:33:11.565Z,7.08
2023-05-01T03:35:38.217Z,7.15
2023-05-01T03:38:04.789Z,7.15
2023-05-01T03:40:31.704Z,7.17
2023-05-01T03:42:58.167Z,7.19
2023-05-01T03:45:24.693Z,7.22
2023-05-01T03:47:51.232Z,7.21
2023-05-01T03:50:17.725Z,7.25
2023-05-01T03:52:44.181Z,7.27
2023-05-01T03:55:10.728Z,7.30
2023-05-01T03:57:37.284Z,7.33
2023-05-01T04:00:04.078Z,7.35
2023-05-01T04:02:30.800Z,7.37
2023-05-01T04:04:57.351Z,7.39
2023-05-01T04:07:24.481Z,7.38
2023-05-01T04:10:11.019Z,7.37
2023-05-01T04:12:37.488Z,7.43
2023-05-01T04:15:04.198Z,7.39
2023-05-01T04:17:31.725Z,7.38
2023-05-01T04:19:58.465Z,7.39
2023-05-01T04:22:25.925Z,7.46
2023-05-01T04:24:52.553Z,7.44
2023-05-01T04:27:19.062Z,7.50
2023-05-01T04:29:45.775Z,7.51
2023-05-01T04:32:12.507Z,7.53
2023-05-01T04:34:38.968Z,7.49
2023-05-01T04:37:05.403Z,7.58
2023-05-01T04:39:31.925Z,7.65
2023-05-01T04:41:58.374Z,7.71
2023-05-01T04:44:24.961Z,7.78
2023-05-01T04:46:52.011Z,7.81
2023-05-01T04:49:18.511Z,7.86
2023-05-01T04:51:45.028Z,7.90
2023-05-01T04:54:11.567Z,7.93
2023-05-01T04:56:38.029Z,7.92
2023-05-01T04:59:04.552Z,8.05
2023-05-01T05:01:31.233Z,8.04
2023-05-01T05:03:57.789Z,8.16
2023-05-01T05:06:24.581Z,8.28
2023-05-01T05:08:51.100Z,8.38
2023-05-01T05:11:20.657Z,8.47
2023-05-01T05:13:47.176Z,8.56
2023-05-01T05:16:14.034Z,8.63
2023-05-01T05:18:40.719Z,8.72
2023-05-01T05:21:07.647Z,8.85
2023-05-01T05:23:34.643Z,8.88
2023-05-01T05:26:01.140Z,9.01
2023-05-01T05:28:28.045Z,9.13
2023-05-01T05:30:55.304Z,9.23
2023-05-01T05:33:21.861Z,9.36
2023-05-01T05:35:48.615Z,9.45
2023-05-01T05:38:15.156Z,9.59
2023-05-01T05:40:41.669Z,9.63
2023-05-01T05:43:08.146Z,9.69
2023-05-01T05:45:34.861Z,9.78
2023-05-01T05:48:01.370Z,9.88
2023-05-01T05:50:28.040Z,10.02
2023-05-01T05:52:54.579Z,9.98
2023-05-01T05:55:21.050Z,10.24
2023-05-01T05:57:47.641Z,10.50
2023-05-01T06:00:14.794Z,10.68
2023-05-01T06:02:41.414Z,11.04
2023-05-01T06:05:08.334Z,11.21
2023-05-01T06:07:34.942Z,11.42
2023-05-01T06:10:01.483Z,11.89
2023-05-01T06:12:27.984Z,12.55
2023-05-01T06:14:54.871Z,13.60
2023-05-01T06:17:22.207Z,15.08
2023-05-01T06:19:48.707Z,17.35
2023-05-01T06:22:15.222Z,19.10
2023-05-01T06:24:41.772Z,20.03
2023-05-01T06:27:08.252Z,19.88
2023-05-01T06:29:34.808Z,21.86
2023-05-01T06:32:01.324Z,21.86
2023-05-01T06:34:27.823Z,22.53
2023-05-01T06:36:54.345Z,23.85
2023-05-01T06:39:20.856Z,23.72
2023-05-01T06:41:47.903Z,24.56
2023-05-01T06:44:14.911Z,23.94
2023-05-01T06:46:41.407Z,22.72
2023-05-01T06:49:07.903Z,21.18
2023-05-01T06:51:34.457Z,19.81
2023-05-01T06:54:00.949Z,18.82
2023-05-01T06:56:27.432Z,17.70
2023-05-01T06:58:53.919Z,16.91
2023-05-01T07:01:20.563Z,16.30
2023-05-01T07:03:47.155Z,15.75
2023-05-01T07:06:13.811Z,15.31
2023-05-01T07:08:40.328Z,14.86
2023-05-01T07:11:07.102Z,14.46
2023-05-01T07:13:33.643Z,14.16
2023-05-01T07:16:00.335Z,13.97
2023-05-01T07:18:26.825Z,13.73
2023-05-01T07:20:53.313Z,13.78
2023-05-01T07:23:19.760Z,13.70
2023-05-01T07:25:46.323Z,13.75
2023-05-01T07:28:13.010Z,13.91
2023-05-01T07:30:39.470Z,13.95
2023-05-01T07:33:06.076Z,13.97
2023-05-01T07:35:32.701Z,13.92
2023-05-01T07:37:59.179Z,13.94
2023-05-01T07:40:25.829Z,13.67
2023-05-01T07:42:54.425Z,13.63
2023-05-01T07:45:21.159Z,13.51
2023-05-01T07:47:47.697Z,13.39
2023-05-01T07:50:14.302Z,13.39
2023-05-01T07:52:40.776Z,13.37
2023-05-01T07:55:07.955Z,13.49
2023-05-01T07:57:36.181Z,13.58
2023-05-01T08:00:02.926Z,13.61
2023-05-01T08:02:29.786Z,13.63
2023-05-01T08:04:56.567Z,13.77
2023-05-01T08:07:23.200Z,13.91
2023-05-01T08:09:49.684Z,13.96
2023-05-01T08:12:16.180Z,14.05
2023-05-01T08:14:42.668Z,14.06
2023-05-01T08:17:09.366Z,13.99
2023-05-01T08:19:35.882Z,13.72
2023-05-01T08:22:02.363Z,13.66
2023-05-01T08:24:30.035Z,13.74
2023-05-01T08:26:56.679Z,13.82
2023-05-01T08:29:23.152Z,13.79
2023-05-01T08:31:49.720Z,13.90
2023-05-01T08:34:16.314Z,13.87
2023-05-01T08:36:42.772Z,13.92
2023-05-01T08:39:09.221Z,14.17
2023-05-01T08:41:37.612Z,14.14
2023-05-01T08:44:05.038Z,14.48
2023-05-01T08:46:46.817Z,14.66
2023-05-01T08:49:15.779Z,14.81
2023-05-01T08:51:46.040Z,14.89
2023-05-01T08:54:14.526Z,14.99
2023-05-01T08:56:46.393Z,15.06
2023-05-01T08:59:14.166Z,15.15
2023-05-01T09:01:41.998Z,15.19
2023-05-01T09:04:09.167Z,15.09
2023-05-01T09:06:35.988Z,15.38
2023-05-01T09:09:02.814Z,15.66
2023-05-01T09:11:30.160Z,15.87
2023-05-01T09:13:56.899Z,16.10
2023-05-01T09:16:23.730Z,17.02
2023-05-01T09:18:50.590Z,17.88
2023-05-01T09:21:17.123Z,18.88
2023-05-01T09:23:43.650Z,19.36
2023-05-01T09:26:10.180Z,19.52
2023-05-01T09:28:43.587Z,19.34
2023-05-01T09:31:21.415Z,19.07
2023-05-01T09:33:52.630Z,18.96
2023-05-01T09:36:19.107Z,18.73
2023-05-01T09:38:45.662Z,18.27
2023-05-01T09:41:12.196Z,18.21
2023-05-01T09:43:38.892Z,18.07
2023-05-01T09:46:10.440Z,18.08
2023-05-01T09:48:38.164Z,18.20
2023-05-01T09:51:19.725Z,18.30
2023-05-01T09:53:46.225Z,17.99
2023-05-01T09:56:12.694Z,17.52
2023-05-01T09:58:39.320Z,17.08
2023-05-01T10:01:05.910Z,16.48
2023-05-01T10:03:34.659Z,15.93
2023-05-01T10:06:01.435Z,15.29
2023-05-01T10:08:44.246Z,15.04
2023-05-01T10:11:10.757Z,15.22
2023-05-01T10:13:37.232Z,15.40
2023-05-01T10:16:05.513Z,15.48
2023-05-01T10:18:34.058Z,15.61
2023-05-01T10:21:00.631Z,15.63
2023-05-01T10:23:27.131Z,15.50
2023-05-01T10:25:53.825Z,15.66
2023-05-01T10:28:21.248Z,15.75
2023-05-01T10:30:49.155Z,15.71
2023-05-01T10:33:16.339Z,15.85
2023-05-01T10:35:48.816Z,15.88
2023-05-01T10:38:24.575Z,15.76
2023-05-01T10:40:51.760Z,15.78
2023-05-01T10:43:21.405Z,15.79
2023-05-01T10:45:48.569Z,15.80
2023-05-01T10:48:39.728Z,15.96
2023-05-01T10:51:12.133Z,15.89
2023-05-01T10:53:40.073Z,16.01
2023-05-01T10:56:29.024Z,16.25
2023-05-01T10:58:58.870Z,16.45
2023-05-01T11:01:33.159Z,16.36
2023-05-01T11:04:02.491Z,16.38
2023-05-01T11:06:29.226Z,16.31
2023-05-01T11:08:56.662Z,16.10
2023-05-01T11:11:23.099Z,15.90
2023-05-01T11:14:06.007Z,15.84
2023-05-01T11:16:38.672Z,16.04
2023-05-01T11:19:10.828Z,15.92
2023-05-01T11:21:40.371Z,16.18
2023-05-01T11:24:07.366Z,16.16
2023-05-01T11:26:41.176Z,16.38
2023-05-01T11:29:11.800Z,16.45
2023-05-01T11:31:39.237Z,16.71
2023-05-01T11:34:05.892Z,16.98
2023-05-01T11:36:53.137Z,16.93
2023-05-01T11:39:20.779Z,16.74
2023-05-01T11:41:47.326Z,16.05
2023-05-01T11:44:18.296Z,15.32
2023-05-01T11:46:45.002Z,14.48
2023-05-01T11:49:11.928Z,13.66
2023-05-01T11:51:38.666Z,12.94
2023-05-01T11:54:07.433Z,12.39
2023-05-01T11:56:34.804Z,11.90
2023-05-01T11:59:15.758Z,11.46
2023-05-01T12:01:46.862Z,11.24
2023-05-01T12:04:22.935Z,11.04
2023-05-01T12:06:49.745Z,10.88
2023-05-01T12:09:25.313Z,10.86
2023-05-01T12:11:53.465Z,10.74
2023-05-01T12:14:21.229Z,10.71
2023-05-01T12:16:48.575Z,10.61
2023-05-01T12:21:42.798Z,10.44
2023-05-01T12:24:14.828Z,10.30
2023-05-01T12:29:08.997Z,10.17
2023-05-01T12:31:36.333Z,10.23
2023-05-01T12:34:07.029Z,10.21
2023-05-01T12:39:11.283Z,10.07
2023-05-01T12:41:46.532Z,10.09
2023-05-01T12:44:16.052Z,9.92
2023-05-01T12:55:04.718Z,10.13
2023-05-01T12:57:32.002Z,10.20
2023-05-01T13:05:12.198Z,9.87
2023-05-01T13:07:38.980Z,9.90
2023-05-01T13:10:06.194Z,9.89
2023-05-01T13:12:33.161Z,9.66
2023-05-01T13:20:04.772Z,8.77
2023-05-01T13:27:25.943Z,8.53
2023-05-01T13:39:46.429Z,8.22
2023-05-01T13:42:18.400Z,8.37
2023-05-01T13:59:45.872Z,9.31
2023-05-01T14:02:25.151Z,9.37
2023-05-01T14:04:51.858Z,9.30
2023-05-01T14:07:20.602Z,9.23
2023-05-01T14:09:55.079Z,9.27
2023-05-01T14:15:43.057Z,9.30
2023-05-01T14:18:14.873Z,9.33
2023-05-01T14:20:42.462Z,9.32
2023-05-01T14:28:06.698Z,9.32
2023-05-01T14:30:37.608Z,9.25
2023-05-01T14:33:05.866Z,9.14
2023-05-01T14:35:32.387Z,9.19
2023-05-01T14:38:10.540Z,9.26
2023-05-01T14:40:40.214Z,9.32
2023-05-01T14:43:07.174Z,9.50
2023-05-01T14:45:36.551Z,9.73
2023-05-01T14:48:03.666Z,9.84
2023-05-01T14:50:30.184Z,9.88
2023-05-01T15:07:43.048Z,9.11
2023-05-01T15:10:10.281Z,9.07
2023-05-01T15:12:36.811Z,9.05
2023-05-01T15:15:03.554Z,9.00
2023-05-01T15:22:25.459Z,8.89
2023-05-01T15:24:51.929Z,8.86
2023-05-01T15:27:18.412Z,8.78
2023-05-01T15:29:44.902Z,8.77
2023-05-01T15:32:12.772Z,8.71
2023-05-01T15:34:39.742Z,8.59
2023-05-01T15:39:32.705Z,8.54
2023-05-01T15:41:59.309Z,8.45
2023-05-01T15:44:25.930Z,8.42
2023-05-01T15:46:52.504Z,8.29
2023-05-01T15:49:19.056Z,8.17
2023-05-01T15:59:07.607Z,8.03
2023-05-01T16:06:29.889Z,8.02
2023-05-01T16:08:58.191Z,8.06
2023-05-01T16:11:24.701Z,8.05
2023-05-01T16:13:51.736Z,7.92
2023-05-01T16:16:28.588Z,7.99
2023-05-01T16:26:28.201Z,7.80
2023-05-01T16:29:01.307Z,7.77
2023-05-01T16:31:29.707Z,7.67
2023-05-01T16:33:56.176Z,7.66
2023-05-01T16:36:22.655Z,7.61
2023-05-01T16:38:49.298Z,7.59
2023-05-01T16:41:17.270Z,7.56
2023-05-01T16:43:45.343Z,7.49
2023-05-01T16:46:16.066Z,7.43
2023-05-01T16:48:42.798Z,7.32
2023-05-01T16:51:10.657Z,7.23
2023-05-01T16:56:04.878Z,7.07
2023-05-01T16:58:31.458Z,6.95
2023-05-01T17:00:57.949Z,6.85
2023-05-01T17:03:24.484Z,6.71
2023-05-01T17:05:50.972Z,6.57
2023-05-01T17:08:17.492Z,6.40
2023-05-01T17:10:44.318Z,6.21
2023-05-01T17:13:10.962Z,6.07
2023-05-01T17:15:37.486Z,5.92
2023-05-01T17:18:04.001Z,5.81
2023-05-01T17:20:30.531Z,5.79
2023-05-01T17:22:57.158Z,5.81
2023-05-01T17:25:23.629Z,5.83
2023-05-01T17:27:50.073Z,5.78
2023-05-01T17:30:16.564Z,5.76
2023-05-01T17:32:43.224Z,5.80
2023-05-01T17:35:09.893Z,5.89
2023-05-01T17:37:36.489Z,6.00
2023-05-01T17:40:03.227Z,6.08
2023-05-01T17:42:29.953Z,6.14
2023-05-01T17:44:56.612Z,6.19
2023-05-01T17:47:25.790Z,6.23
2023-05-01T17:49:52.619Z,6.27
2023-05-01T17:52:19.148Z,6.38
2023-05-01T17:54:45.720Z,6.52
2023-05-01T17:57:12.687Z,6.60
2023-05-01T17:59:39.239Z,6.71
2023-05-01T18:02:06.005Z,6.67
2023-05-01T18:04:32.539Z,6.65
2023-05-01T18:11:52.095Z,6.67
2023-05-01T18:14:18.603Z,6.67
2023-05-01T18:16:45.481Z,6.69
2023-05-01T18:19:11.980Z,6.65
2023-05-01T18:21:38.801Z,6.64
2023-05-01T18:24:05.284Z,6.57
2023-05-01T18:26:31.783Z,6.48
2023-05-01T18:28:58.312Z,6.29
2023-05-01T18:31:24.813Z,6.05
2023-05-01T18:36:17.764Z,5.60
2023-05-01T18:38:44.734Z,5.40
2023-05-01T18:41:11.213Z,5.20
2023-05-01T18:43:37.777Z,5.01
2023-05-01T18:46:04.276Z,4.83
2023-05-01T18:48:30.893Z,4.65
2023-05-01T18:51:07.906Z,4.49
2023-05-01T18:53:35.344Z,4.32
2023-05-01T18:56:02.421Z,4.22
2023-05-01T18:58:28.913Z,4.12
2023-05-01T19:00:55.395Z,4.01
2023-05-01T19:03:21.924Z,3.91
2023-05-01T19:05:48.406Z,3.81
2023-05-01T19:08:14.935Z,3.73
2023-05-01T19:10:41.533Z,3.63
2023-05-01T19:13:08.203Z,3.57
2023-05-01T19:18:01.193Z,3.53
2023-05-01T19:20:27.856Z,3.49
2023-05-01T19:22:54.341Z,3.41
2023-05-01T19:25:20.917Z,3.39
2023-05-01T19:27:47.426Z,3.37
2023-05-01T19:30:13.918Z,3.30
2023-05-01T19:32:40.619Z,3.21
2023-05-01T19:35:07.413Z,3.15
2023-05-01T19:37:33.879Z,3.06
2023-05-01T19:40:00.621Z,3.02
2023-05-01T19:42:27.375Z,2.95
2023-05-01T19:44:53.842Z,2.86
2023-05-01T19:47:20.427Z,2.83
2023-05-01T19:49:46.966Z,2.80
2023-05-01T19:52:13.432Z,2.74
2023-05-01T19:54:39.950Z,2.74
2023-05-01T19:57:06.488Z,2.71
2023-05-01T19:59:33.024Z,2.67
2023-05-01T20:26:26.054Z,2.27
2023-05-01T20:41:10.846Z,2.23
2023-05-01T20:43:38.690Z,2.13
2023-05-01T21:00:44.471Z,1.69
2023-05-01T21:22:44.099Z,1.34
2023-05-01T21:35:00.594Z,1.24
2023-05-01T21:39:53.749Z,1.24
2023-05-01T21:59:40.439Z,1.19
2023-05-01T22:02:11.769Z,1.19
2023-05-01T22:04:38.769Z,1.15
2023-05-01T22:07:06.130Z,1.13
2023-05-01T22:09:33.136Z,1.12
2023-05-01T22:11:59.598Z,1.10
2023-05-01T22:17:06.701Z,1.16
2023-05-01T22:19:33.312Z,1.08
2023-05-01T22:31:45.345Z,0.95
2023-05-01T22:34:11.901Z,0.93
2023-05-01T22:36:38.445Z,0.95
2023-05-01T22:39:04.890Z,0.94
2023-05-01T22:41:31.387Z,0.90
2023-05-01T22:46:24.278Z,0.87
2023-05-01T22:48:50.840Z,0.81
2023-05-01T22:51:17.305Z,0.75
2023-05-01T22:53:43.780Z,0.73
2023-05-01T22:56:10.333Z,0.70
2023-05-01T22:58:36.884Z,0.66
2023-05-01T23:01:03.397Z,0.62
2023-05-01T23:03:31.420Z,0.60
2023-05-01T23:05:58.023Z,0.57
2023-05-01T23:08:24.521Z,0.55
2023-05-01T23:15:47.604Z,0.43
2023-05-01T23:18:17.178Z,0.40
2023-05-01T23:20:43.873Z,0.41
2023-05-01T23:23:13.958Z,0.43
2023-05-01T23:47:45.342Z,0.01
2023-05-01T23:50:11.887Z,0.02
2023-05-01T23:52:38.429Z,0.00
2023-05-01T23:55:05.339Z,-0.01
